| time (UTC) | temp F | wind direction | speed MPH | gust MPH | rain 1hr in | rain 24hr in | rain mn in | humidity % | barometer mb |
| 20260510213010 | 62 | 277 | 3.0 | 6.0 | 0.00 | 0.00 | 0.00 | 33 | 1018.1 |
| 20260510212506 | 62 | 108 | 1.0 | 2.0 | 0.00 | 0.00 | 0.00 | 33 | 1018.1 |
| 20260510212003 | 62 | 345 | 6.0 | 8.0 | 0.00 | 0.00 | 0.00 | 32 | 1018.1 |
| 20260510211501 | 62 | 167 | 0.0 | 1.0 | 0.00 | 0.00 | 0.00 | 32 | 1018.4 |
| 20260510211000 | 63 | 212 | 2.0 | 2.0 | 0.00 | 0.00 | 0.00 | 31 | 1018.1 |
| 20260510210456 | 62 | 206 | 1.0 | 2.0 | 0.00 | 0.00 | 0.00 | 31 | 1018.1 |
| 20260510205956 | 62 | 29 | 3.0 | 4.0 | 0.00 | 0.00 | 0.00 | 31 | 1018.1 |
| 20260510205451 | 63 | 280 | 2.0 | 2.0 | 0.00 | 0.00 | 0.00 | 31 | 1018.1 |
| 20260510204947 | 62 | 279 | 4.0 | 6.0 | 0.00 | 0.00 | 0.00 | 32 | 1018.1 |
| 20260510204444 | 62 | 293 | 6.0 | 7.0 | 0.00 | 0.00 | 0.00 | 31 | 1018.1 |
| 20260510203939 | 63 | 253 | 2.0 | 3.0 | 0.00 | 0.00 | 0.00 | 31 | 1018.1 |
| 20260510203438 | 64 | 290 | 3.0 | 4.0 | 0.00 | 0.00 | 0.00 | 31 | 1017.8 |
| 20260510202932 | 64 | 211 | 3.0 | 4.0 | 0.00 | 0.00 | 0.00 | 30 | 1018.4 |
| 20260510202428 | 64 | 190 | 1.0 | 1.0 | 0.00 | 0.00 | 0.00 | 31 | 1018.1 |
| 20260510201925 | 64 | 191 | 1.0 | 1.0 | 0.00 | 0.00 | 0.00 | 31 | 1018.1 |
| 20260510201422 | 63 | 187 | 3.0 | 4.0 | 0.00 | 0.00 | 0.00 | 32 | 1018.1 |
| 20260510200918 | 64 | 290 | 6.0 | 8.0 | 0.00 | 0.00 | 0.00 | 30 | 1018.1 |
| 20260510200419 | 64 | 193 | 3.0 | 6.0 | 0.00 | 0.00 | 0.00 | 30 | 1018.4 |
| 20260510195912 | 62 | 191 | 0.0 | 1.0 | 0.00 | 0.00 | 0.00 | 31 | 1018.4 |
| 20260510195409 | 62 | 88 | 3.0 | 4.0 | 0.00 | 0.00 | 0.00 | 31 | 1018.4 |
| 20260510194904 | 62 | 84 | 1.0 | 1.0 | 0.00 | 0.00 | 0.00 | 32 | 1018.4 |
| 20260510194401 | 60 | 251 | 2.0 | 3.0 | 0.00 | 0.00 | 0.00 | 32 | 1018.8 |
| 20260510193857 | 60 | 186 | 1.0 | 2.0 | 0.00 | 0.00 | 0.00 | 33 | 1018.4 |
| 20260510193352 | 60 | 175 | 1.0 | 2.0 | 0.00 | 0.00 | 0.00 | 33 | 1018.4 |
| 20260510192848 | 61 | 168 | 1.0 | 2.0 | 0.00 | 0.00 | 0.00 | 32 | 1018.8 |
| 20260510192343 | 62 | 182 | 2.0 | 2.0 | 0.00 | 0.00 | 0.00 | 32 | 1018.4 |
| 20260510191839 | 62 | 157 | 1.0 | 1.0 | 0.00 | 0.00 | 0.00 | 31 | 1018.4 |
| 20260510191335 | 61 | 125 | 2.0 | 3.0 | 0.00 | 0.00 | 0.00 | 33 | 1018.8 |
| 20260510190833 | 60 | 193 | 2.0 | 2.0 | 0.00 | 0.00 | 0.00 | 31 | 1018.8 |
| 20260510190331 | 62 | 172 | 2.0 | 4.0 | 0.00 | 0.00 | 0.00 | 32 | 1018.4 |
| 20260510185826 | 62 | 168 | 2.0 | 3.0 | 0.00 | 0.00 | 0.00 | 32 | 1018.4 |
| 20260510185325 | 62 | 109 | 2.0 | 3.0 | 0.00 | 0.00 | 0.00 | 31 | 1018.8 |
| 20260510184822 | 62 | 294 | 4.0 | 6.0 | 0.00 | 0.00 | 0.00 | 31 | 1018.8 |
| 20260510184319 | 62 | 283 | 2.0 | 4.0 | 0.00 | 0.00 | 0.00 | 31 | 1018.4 |
| 20260510183813 | 62 | 222 | 3.0 | 4.0 | 0.00 | 0.00 | 0.00 | 32 | 1018.4 |
| 20260510183308 | 62 | 22 | 1.0 | 2.0 | 0.00 | 0.00 | 0.00 | 32 | 1018.4 |
| 20260510182804 | 62 | 192 | 1.0 | 2.0 | 0.00 | 0.00 | 0.00 | 31 | 1018.4 |
| 20260510182301 | 63 | 180 | 1.0 | 2.0 | 0.00 | 0.00 | 0.00 | 32 | 1018.4 |
| 20260510181757 | 63 | 186 | 1.0 | 2.0 | 0.00 | 0.00 | 0.00 | 31 | 1018.1 |
| 20260510181254 | 62 | 235 | 1.0 | 2.0 | 0.00 | 0.00 | 0.00 | 30 | 1018.4 |
| 20260510180750 | 60 | 179 | 1.0 | 1.0 | 0.00 | 0.00 | 0.00 | 33 | 1018.1 |
| 20260510180248 | 62 | 101 | 0.0 | 1.0 | 0.00 | 0.00 | 0.00 | 33 | 1018.4 |
| 20260510175745 | 61 | 215 | 2.0 | 2.0 | 0.00 | 0.00 | 0.00 | 33 | 1018.1 |
| 20260510175240 | 60 | 108 | 3.0 | 3.0 | 0.00 | 0.00 | 0.00 | 30 | 1018.4 |
| 20260510174737 | 60 | 159 | 0.0 | 1.0 | 0.00 | 0.00 | 0.00 | 29 | 1018.4 |
| 20260510174235 | 61 | 203 | 3.0 | 3.0 | 0.00 | 0.00 | 0.00 | 30 | 1018.1 |
| 20260510173731 | 61 | 193 | 2.0 | 3.0 | 0.00 | 0.00 | 0.00 | 31 | 1018.4 |
| 20260510173226 | 61 | 226 | 4.0 | 6.0 | 0.00 | 0.00 | 0.00 | 30 | 1018.1 |
| 20260510172722 | 59 | 91 | 2.0 | 2.0 | 0.00 | 0.00 | 0.00 | 33 | 1018.1 |
| 20260510172218 | 60 | 223 | 2.0 | 2.0 | 0.00 | 0.00 | 0.00 | 31 | 1018.1 |
| 20260510171715 | 60 | 0 | 2.0 | 2.0 | 0.00 | 0.00 | 0.00 | 30 | 1018.1 |
| 20260510171213 | 59 | 113 | 2.0 | 3.0 | 0.00 | 0.00 | 0.00 | 32 | 1018.4 |
| 20260510170709 | 60 | 48 | 1.0 | 2.0 | 0.00 | 0.00 | 0.00 | 30 | 1018.4 |
| 20260510170205 | 60 | 197 | 1.0 | 1.0 | 0.00 | 0.00 | 0.00 | 35 | 1018.4 |
| 20260510165702 | 60 | 164 | 1.0 | 1.0 | 0.00 | 0.00 | 0.00 | 31 | 1018.4 |
| 20260510165158 | 60 | 160 | 0.0 | 1.0 | 0.00 | 0.00 | 0.00 | 29 | 1018.8 |
| 20260510164655 | 60 | 306 | 2.0 | 4.0 | 0.00 | 0.00 | 0.00 | 30 | 1018.8 |
| 20260510164153 | 60 | 259 | 5.0 | 6.0 | 0.00 | 0.00 | 0.00 | 31 | 1018.4 |
| 20260510163648 | 60 | 50 | 4.0 | 7.0 | 0.00 | 0.00 | 0.00 | 33 | 1018.4 |
| 20260510163144 | 60 | 290 | 4.0 | 6.0 | 0.00 | 0.00 | 0.00 | 31 | 1018.4 |
| 20260510162643 | 60 | 144 | 2.0 | 2.0 | 0.00 | 0.00 | 0.00 | 36 | 1018.4 |
| 20260510162141 | 59 | 191 | 1.0 | 1.0 | 0.00 | 0.00 | 0.00 | 33 | 1018.4 |
| 20260510161636 | 59 | 291 | 2.0 | 3.0 | 0.00 | 0.00 | 0.00 | 33 | 1018.4 |
| 20260510161133 | 60 | 56 | 2.0 | 3.0 | 0.00 | 0.00 | 0.00 | 33 | 1018.4 |
| 20260510160630 | 60 | 265 | 2.0 | 3.0 | 0.00 | 0.00 | 0.00 | 34 | 1018.1 |
| 20260510160130 | 60 | 168 | 2.0 | 3.0 | 0.00 | 0.00 | 0.00 | 32 | 1018.4 |
| 20260510155626 | 60 | 203 | 1.0 | 1.0 | 0.00 | 0.00 | 0.00 | 35 | 1018.4 |
| 20260510155123 | 58 | 185 | 2.0 | 2.0 | 0.00 | 0.00 | 0.00 | 38 | 1018.1 |
| 20260510154618 | 59 | 68 | 3.0 | 4.0 | 0.00 | 0.00 | 0.00 | 35 | 1018.4 |
| 20260510154114 | 59 | 66 | 4.0 | 7.0 | 0.00 | 0.00 | 0.00 | 33 | 1018.1 |
| 20260510153609 | 58 | 54 | 1.0 | 1.0 | 0.00 | 0.00 | 0.00 | 40 | 1018.1 |
| 20260510153106 | 59 | 161 | 1.0 | 1.0 | 0.00 | 0.00 | 0.00 | 35 | 1018.1 |
| 20260510152603 | 58 | 0 | 2.0 | 2.0 | 0.00 | 0.00 | 0.00 | 37 | 1018.1 |
| 20260510152059 | 58 | 331 | 3.0 | 4.0 | 0.00 | 0.00 | 0.00 | 37 | 1018.1 |
| 20260510151555 | 58 | 163 | 2.0 | 3.0 | 0.00 | 0.00 | 0.00 | 37 | 1017.8 |
| 20260510151053 | 57 | 156 | 1.0 | 1.0 | 0.00 | 0.00 | 0.00 | 39 | 1017.8 |
| 20260510150548 | 57 | 131 | 1.0 | 2.0 | 0.00 | 0.00 | 0.00 | 41 | 1017.8 |
| 20260510150044 | 57 | 207 | 1.0 | 1.0 | 0.00 | 0.00 | 0.00 | 39 | 1017.8 |
| 20260510145541 | 57 | 147 | 1.0 | 1.0 | 0.00 | 0.00 | 0.00 | 40 | 1017.8 |
| 20260510145038 | 56 | 116 | 0.0 | 1.0 | 0.00 | 0.00 | 0.00 | 43 | 1017.8 |
| 20260510144534 | 56 | 216 | 1.0 | 2.0 | 0.00 | 0.00 | 0.00 | 41 | 1017.8 |
| 20260510144030 | 55 | 181 | 1.0 | 1.0 | 0.00 | 0.00 | 0.00 | 42 | 1017.8 |
| 20260510143525 | 55 | 98 | 2.0 | 2.0 | 0.00 | 0.00 | 0.00 | 42 | 1017.8 |
| 20260510143023 | 55 | 66 | 1.0 | 3.0 | 0.00 | 0.00 | 0.00 | 44 | 1017.4 |
| 20260510142519 | 55 | 33 | 3.0 | 4.0 | 0.00 | 0.00 | 0.00 | 41 | 1017.8 |
| 20260510142016 | 55 | 175 | 0.0 | 0.0 | 0.00 | 0.00 | 0.00 | 43 | 1017.4 |
| 20260510141512 | 54 | 117 | 1.0 | 2.0 | 0.00 | 0.00 | 0.00 | 44 | 1017.4 |
| 20260510141009 | 54 | 195 | 1.0 | 1.0 | 0.00 | 0.00 | 0.00 | 44 | 1017.4 |
| 20260510140506 | 55 | 132 | 1.0 | 1.0 | 0.00 | 0.00 | 0.00 | 43 | 1017.8 |
| 20260510140000 | 54 | 95 | 2.0 | 3.0 | 0.00 | 0.00 | 0.00 | 46 | 1017.4 |
| 20260510135455 | 54 | 159 | 1.0 | 1.0 | 0.00 | 0.00 | 0.00 | 46 | 1017.1 |
| 20260510134953 | 54 | 185 | 1.0 | 1.0 | 0.00 | 0.00 | 0.00 | 46 | 1017.4 |
| 20260510134450 | 53 | 72 | 1.0 | 2.0 | 0.00 | 0.00 | 0.00 | 47 | 1017.8 |
| 20260510133947 | 52 | 62 | 1.0 | 2.0 | 0.00 | 0.00 | 0.00 | 46 | 1017.8 |
| 20260510133442 | 53 | 200 | 2.0 | 3.0 | 0.00 | 0.00 | 0.00 | 47 | 1017.4 |
| 20260510132938 | 52 | 40 | 4.0 | 6.0 | 0.00 | 0.00 | 0.00 | 48 | 1017.4 |
| 20260510132436 | 52 | 129 | 1.0 | 1.0 | 0.00 | 0.00 | 0.00 | 49 | 1017.4 |
| 20260510131932 | 53 | 91 | 3.0 | 3.0 | 0.00 | 0.00 | 0.00 | 48 | 1017.4 |
| 20260510131430 | 52 | 188 | 1.0 | 1.0 | 0.00 | 0.00 | 0.00 | 49 | 1017.1 |
| 20260510130926 | 51 | 81 | 1.0 | 2.0 | 0.00 | 0.00 | 0.00 | 51 | 1017.1 |
| 20260510130424 | 51 | 86 | 3.0 | 4.0 | 0.00 | 0.00 | 0.00 | 48 | 1017.1 |
| 20260510125921 | 51 | 57 | 2.0 | 2.0 | 0.00 | 0.00 | 0.00 | 50 | 1017.1 |
| 20260510125416 | 51 | 80 | 2.0 | 3.0 | 0.00 | 0.00 | 0.00 | 50 | 1017.1 |
| 20260510124913 | 51 | 117 | 1.0 | 1.0 | 0.00 | 0.00 | 0.00 | 51 | 1017.1 |
| 20260510124404 | 51 | 93 | 2.0 | 2.0 | 0.00 | 0.00 | 0.00 | 49 | 1016.8 |
| 20260510123900 | 51 | 191 | 1.0 | 1.0 | 0.00 | 0.00 | 0.00 | 50 | 1017.1 |
| 20260510123356 | 51 | 177 | 1.0 | 1.0 | 0.00 | 0.00 | 0.00 | 50 | 1016.8 |
| 20260510122852 | 51 | 43 | 2.0 | 3.0 | 0.00 | 0.00 | 0.00 | 49 | 1016.8 |
| 20260510122348 | 50 | 159 | 0.0 | 0.0 | 0.00 | 0.00 | 0.00 | 52 | 1016.8 |
| 20260510121844 | 50 | 173 | 1.0 | 1.0 | 0.00 | 0.00 | 0.00 | 53 | 1016.8 |
| 20260510121343 | 49 | 108 | 2.0 | 2.0 | 0.00 | 0.00 | 0.00 | 52 | 1016.8 |
| 20260510120839 | 49 | 123 | 1.0 | 2.0 | 0.00 | 0.00 | 0.00 | 53 | 1016.8 |
| 20260510120337 | 49 | 131 | 2.0 | 2.0 | 0.00 | 0.00 | 0.00 | 55 | 1016.8 |
| 20260510115832 | 48 | 142 | 0.0 | 1.0 | 0.00 | 0.00 | 0.00 | 59 | 1016.4 |
| 20260510115329 | 47 | 147 | 0.0 | 1.0 | 0.00 | 0.00 | 0.00 | 61 | 1016.4 |
| 20260510114825 | 47 | 113 | 1.0 | 2.0 | 0.00 | 0.00 | 0.00 | 63 | 1016.4 |
| 20260510114322 | 46 | 167 | 0.0 | 0.0 | 0.00 | 0.00 | 0.00 | 64 | 1016.4 |
| 20260510113817 | 46 | 177 | 0.0 | 1.0 | 0.00 | 0.00 | 0.00 | 64 | 1016.4 |
| 20260510113314 | 46 | 133 | 1.0 | 1.0 | 0.00 | 0.00 | 0.00 | 67 | 1016.4 |
| 20260510112811 | 45 | 170 | 0.0 | 0.0 | 0.00 | 0.00 | 0.00 | 68 | 1016.1 |
| 20260510112308 | 45 | 59 | 1.0 | 2.0 | 0.00 | 0.00 | 0.00 | 69 | 1016.1 |
| 20260510111804 | 45 | 181 | 1.0 | 1.0 | 0.00 | 0.00 | 0.00 | 71 | 1015.6 |
| 20260510111300 | 44 | 177 | 0.0 | 0.0 | 0.00 | 0.00 | 0.00 | 71 | 1015.6 |
| 20260510110800 | 44 | 164 | 0.0 | 0.0 | 0.00 | 0.00 | 0.00 | 73 | 1015.6 |
| 20260510110258 | 43 | 164 | 0.0 | 0.0 | 0.00 | 0.00 | 0.00 | 75 | 1015.6 |
| 20260510105758 | 42 | 160 | 0.0 | 0.0 | 0.00 | 0.00 | 0.00 | 79 | 1015.3 |
| 20260510105253 | 41 | 160 | 0.0 | 0.0 | 0.00 | 0.00 | 0.00 | 80 | 1015.6 |
| 20260510104750 | 41 | 160 | 0.0 | 0.0 | 0.00 | 0.00 | 0.00 | 79 | 1015.3 |
| 20260510104248 | 41 | 160 | 0.0 | 0.0 | 0.00 | 0.00 | 0.00 | 78 | 1015.3 |
| 20260510103743 | 41 | 160 | 0.0 | 0.0 | 0.00 | 0.00 | 0.00 | 78 | 1015.6 |
| 20260510103241 | 41 | 160 | 0.0 | 0.0 | 0.00 | 0.00 | 0.00 | 78 | 1015.3 |
| 20260510102740 | 41 | 160 | 0.0 | 0.0 | 0.00 | 0.00 | 0.00 | 77 | 1015.0 |
| 20260510102236 | 42 | 160 | 0.0 | 0.0 | 0.00 | 0.00 | 0.00 | 76 | 1015.6 |
| 20260510101734 | 42 | 160 | 0.0 | 0.0 | 0.00 | 0.00 | 0.00 | 75 | 1015.3 |
| 20260510101232 | 42 | 160 | 0.0 | 0.0 | 0.00 | 0.00 | 0.00 | 73 | 1015.0 |
| 20260510100728 | 42 | 160 | 0.0 | 0.0 | 0.00 | 0.00 | 0.00 | 73 | 1015.0 |
| 20260510100226 | 43 | 160 | 0.0 | 0.0 | 0.00 | 0.00 | 0.00 | 72 | 1015.0 |
| 20260510095721 | 44 | 160 | 0.0 | 0.0 | 0.00 | 0.00 | 0.00 | 71 | 1015.0 |
| 20260510095216 | 44 | 160 | 0.0 | 0.0 | 0.00 | 0.00 | 0.00 | 70 | 1015.0 |
| 20260510094715 | 45 | 160 | 0.0 | 0.0 | 0.00 | 0.00 | 0.00 | 68 | 1015.0 |
| 20260510094211 | 45 | 160 | 0.0 | 0.0 | 0.00 | 0.00 | 0.00 | 67 | 1014.6 |
| 20260510093707 | 46 | 160 | 0.0 | 0.0 | 0.00 | 0.00 | 0.00 | 66 | 1015.0 |
| 20260510093205 | 46 | 154 | 0.0 | 0.0 | 0.00 | 0.00 | 0.00 | 66 | 1015.0 |
| 20260510092701 | 46 | 155 | 0.0 | 0.0 | 0.00 | 0.00 | 0.00 | 66 | 1015.0 |
| 20260510092156 | 45 | 157 | 0.0 | 0.0 | 0.00 | 0.00 | 0.00 | 66 | 1014.6 |
| 20260510091652 | 45 | 171 | 0.0 | 0.0 | 0.00 | 0.00 | 0.00 | 66 | 1014.6 |
| 20260510091149 | 46 | 165 | 0.0 | 0.0 | 0.00 | 0.00 | 0.00 | 65 | 1014.3 |
| 20260510090646 | 46 | 164 | 0.0 | 0.0 | 0.00 | 0.00 | 0.00 | 65 | 1014.6 |
| 20260510090142 | 47 | 168 | 0.0 | 0.0 | 0.00 | 0.00 | 0.00 | 64 | 1014.3 |
| 20260510085637 | 46 | 186 | 0.0 | 1.0 | 0.00 | 0.00 | 0.00 | 64 | 1013.9 |
| 20260510085132 | 47 | 151 | 0.0 | 0.0 | 0.00 | 0.00 | 0.00 | 63 | 1013.9 |
| 20260510084629 | 47 | 166 | 0.0 | 1.0 | 0.00 | 0.00 | 0.00 | 62 | 1013.9 |
| 20260510084126 | 47 | 119 | 0.0 | 1.0 | 0.00 | 0.00 | 0.00 | 62 | 1013.6 |
| 20260510083623 | 48 | 142 | 0.0 | 1.0 | 0.00 | 0.00 | 0.00 | 61 | 1013.6 |
| 20260510083119 | 48 | 54 | 2.0 | 3.0 | 0.00 | 0.00 | 0.00 | 61 | 1013.6 |
| 20260510082616 | 48 | 149 | 0.0 | 0.0 | 0.00 | 0.00 | 0.00 | 61 | 1013.6 |
| 20260510082112 | 48 | 124 | 1.0 | 1.0 | 0.00 | 0.00 | 0.00 | 60 | 1013.3 |
| 20260510081612 | 48 | 85 | 2.0 | 2.0 | 0.00 | 0.00 | 0.00 | 61 | 1013.3 |
| 20260510081108 | 48 | 159 | 0.0 | 0.0 | 0.00 | 0.00 | 0.00 | 61 | 1013.3 |
| 20260510080602 | 49 | 107 | 1.0 | 2.0 | 0.00 | 0.00 | 0.00 | 59 | 1012.9 |
| 20260510080059 | 49 | 147 | 0.0 | 0.0 | 0.00 | 0.00 | 0.00 | 60 | 1012.9 |
| 20260510075556 | 49 | 111 | 2.0 | 3.0 | 0.00 | 0.00 | 0.00 | 60 | 1012.6 |
| 20260510075053 | 49 | 143 | 1.0 | 1.0 | 0.00 | 0.00 | 0.00 | 59 | 1012.6 |
| 20260510074550 | 50 | 144 | 1.0 | 1.0 | 0.00 | 0.00 | 0.00 | 58 | 1012.6 |
| 20260510074045 | 50 | 122 | 2.0 | 4.0 | 0.00 | 0.00 | 0.00 | 59 | 1012.3 |
| 20260510073542 | 50 | 150 | 1.0 | 2.0 | 0.00 | 0.00 | 0.00 | 60 | 1012.3 |
| 20260510073039 | 50 | 147 | 0.0 | 1.0 | 0.00 | 0.00 | 0.00 | 60 | 1011.9 |
| 20260510072536 | 50 | 54 | 1.0 | 2.0 | 0.00 | 0.00 | 0.00 | 60 | 1011.9 |
| 20260510072031 | 51 | 64 | 2.0 | 3.0 | 0.00 | 0.00 | 0.00 | 61 | 1011.9 |
| 20260510071527 | 51 | 38 | 2.0 | 3.0 | 0.00 | 0.00 | 0.00 | 60 | 1011.6 |
| 20260510071026 | 51 | 111 | 2.0 | 3.0 | 0.00 | 0.00 | 0.00 | 61 | 1011.6 |
| 20260510070522 | 51 | 124 | 2.0 | 2.0 | 0.00 | 0.00 | 0.00 | 62 | 1011.2 |
| 20260510070019 | 52 | 123 | 1.0 | 1.0 | 0.00 | 0.00 | 0.00 | 61 | 1011.6 |
| 20260510065515 | 51 | 34 | 1.0 | 3.0 | 0.00 | 0.00 | 0.00 | 61 | 1011.2 |
| 20260510065011 | 51 | 79 | 1.0 | 2.0 | 0.00 | 0.00 | 0.00 | 61 | 1011.2 |
| 20260510064509 | 51 | 102 | 2.0 | 2.0 | 0.00 | 0.00 | 0.00 | 61 | 1011.6 |
| 20260510064005 | 52 | 145 | 0.0 | 1.0 | 0.00 | 0.00 | 0.00 | 61 | 1011.2 |
| 20260510063502 | 52 | 89 | 1.0 | 2.0 | 0.00 | 0.00 | 0.00 | 60 | 1011.2 |
| 20260510062959 | 52 | 129 | 0.0 | 1.0 | 0.00 | 0.00 | 0.00 | 59 | 1011.6 |
| 20260510062455 | 52 | 125 | 1.0 | 1.0 | 0.00 | 0.00 | 0.00 | 59 | 1011.2 |
| 20260510061950 | 52 | 122 | 1.0 | 1.0 | 0.00 | 0.00 | 0.00 | 61 | 1011.2 |
| 20260510061447 | 52 | 156 | 0.0 | 1.0 | 0.00 | 0.00 | 0.00 | 63 | 1011.2 |
| 20260510060943 | 52 | 330 | 1.0 | 2.0 | 0.00 | 0.00 | 0.00 | 64 | 1011.2 |
| 20260510060441 | 53 | 141 | 0.0 | 1.0 | 0.00 | 0.00 | 0.00 | 64 | 1011.2 |
| 20260510055936 | 52 | 116 | 1.0 | 1.0 | 0.00 | 0.00 | 0.00 | 64 | 1010.9 |
| 20260510055432 | 50 | 115 | 0.0 | 1.0 | 0.00 | 0.00 | 0.00 | 69 | 1011.2 |
| 20260510054930 | 50 | 168 | 0.0 | 0.0 | 0.00 | 0.00 | 0.00 | 70 | 1011.2 |
| 20260510054425 | 51 | 168 | 0.0 | 0.0 | 0.00 | 0.00 | 0.00 | 69 | 1010.9 |
| 20260510053921 | 51 | 168 | 0.0 | 0.0 | 0.00 | 0.00 | 0.00 | 68 | 1010.9 |
| 20260510053417 | 52 | 167 | 0.0 | 0.0 | 0.00 | 0.00 | 0.00 | 67 | 1010.5 |
| 20260510052913 | 52 | 168 | 0.0 | 0.0 | 0.00 | 0.00 | 0.00 | 65 | 1010.5 |
| 20260510052409 | 52 | 168 | 0.0 | 0.0 | 0.00 | 0.00 | 0.00 | 66 | 1010.5 |
| 20260510051905 | 52 | 174 | 0.0 | 0.0 | 0.00 | 0.00 | 0.00 | 66 | 1010.5 |
| 20260510051402 | 52 | 174 | 0.0 | 0.0 | 0.00 | 0.00 | 0.00 | 67 | 1010.5 |
| 20260510050858 | 52 | 174 | 0.0 | 0.0 | 0.00 | 0.00 | 0.00 | 68 | 1010.1 |
| 20260510050355 | 52 | 173 | 0.0 | 0.0 | 0.00 | 0.00 | 0.00 | 66 | 1009.8 |
| 20260510045852 | 53 | 174 | 0.0 | 0.0 | 0.00 | 0.00 | 0.00 | 65 | 1009.8 |
| 20260510045349 | 53 | 174 | 0.0 | 0.0 | 0.00 | 0.00 | 0.00 | 64 | 1009.8 |
| 20260510044846 | 54 | 174 | 0.0 | 0.0 | 0.00 | 0.00 | 0.00 | 62 | 1009.4 |
| 20260510044343 | 54 | 174 | 0.0 | 0.0 | 0.00 | 0.00 | 0.00 | 61 | 1009.4 |
| 20260510043839 | 54 | 174 | 0.0 | 0.0 | 0.00 | 0.00 | 0.00 | 61 | 1009.4 |
| 20260510043335 | 55 | 174 | 0.0 | 0.0 | 0.00 | 0.00 | 0.00 | 60 | 1009.4 |
| 20260510042833 | 55 | 164 | 0.0 | 0.0 | 0.00 | 0.00 | 0.00 | 60 | 1009.4 |
| 20260510042329 | 55 | 164 | 0.0 | 0.0 | 0.00 | 0.00 | 0.00 | 59 | 1009.1 |
| 20260510041826 | 56 | 163 | 0.0 | 0.0 | 0.00 | 0.00 | 0.00 | 58 | 1009.1 |
| 20260510041323 | 56 | 163 | 0.0 | 0.0 | 0.00 | 0.00 | 0.00 | 57 | 1009.1 |
| 20260510040820 | 57 | 167 | 0.0 | 0.0 | 0.00 | 0.00 | 0.00 | 56 | 1009.4 |
| 20260510040316 | 57 | 157 | 0.0 | 0.0 | 0.00 | 0.00 | 0.00 | 55 | 1009.4 |
| 20260510035812 | 57 | 179 | 0.0 | 0.0 | 0.00 | 0.05 | 0.05 | 55 | 1009.1 |
| 20260510035309 | 57 | 155 | 0.0 | 0.0 | 0.00 | 0.05 | 0.05 | 53 | 1009.1 |
| 20260510034804 | 58 | 177 | 0.0 | 0.0 | 0.00 | 0.05 | 0.05 | 53 | 1008.8 |
| 20260510034302 | 58 | 107 | 1.0 | 1.0 | 0.00 | 0.05 | 0.05 | 52 | 1009.1 |
| 20260510033758 | 59 | 194 | 1.0 | 1.0 | 0.00 | 0.05 | 0.05 | 51 | 1008.8 |
| 20260510033255 | 59 | 167 | 0.0 | 0.0 | 0.00 | 0.05 | 0.05 | 52 | 1008.8 |
| 20260510032752 | 59 | 210 | 1.0 | 2.0 | 0.00 | 0.05 | 0.05 | 51 | 1008.4 |
| 20260510032248 | 59 | 170 | 0.0 | 0.0 | 0.00 | 0.05 | 0.05 | 51 | 1008.8 |
| 20260510031743 | 60 | 162 | 0.0 | 0.0 | 0.00 | 0.05 | 0.05 | 50 | 1008.8 |
| 20260510031239 | 60 | 46 | 2.0 | 3.0 | 0.00 | 0.05 | 0.05 | 50 | 1008.4 |
| 20260510030738 | 60 | 192 | 1.0 | 1.0 | 0.00 | 0.05 | 0.05 | 49 | 1008.4 |
| 20260510030231 | 60 | 147 | 0.0 | 1.0 | 0.00 | 0.05 | 0.05 | 49 | 1008.1 |
| 20260510025728 | 60 | 187 | 1.0 | 1.0 | 0.00 | 0.05 | 0.05 | 48 | 1008.1 |
| 20260510025225 | 61 | 195 | 2.0 | 3.0 | 0.00 | 0.05 | 0.05 | 48 | 1008.1 |
| 20260510024722 | 61 | 183 | 1.0 | 2.0 | 0.00 | 0.05 | 0.05 | 48 | 1008.1 |
| 20260510024214 | 61 | 159 | 0.0 | 0.0 | 0.00 | 0.05 | 0.05 | 47 | 1007.7 |
| 20260510023708 | 62 | 163 | 1.0 | 2.0 | 0.00 | 0.05 | 0.05 | 47 | 1007.7 |
| 20260510023206 | 62 | 178 | 1.0 | 1.0 | 0.00 | 0.05 | 0.05 | 46 | 1007.7 |
| 20260510022702 | 63 | 152 | 1.0 | 1.0 | 0.00 | 0.05 | 0.05 | 46 | 1007.4 |
| 20260510022156 | 63 | 174 | 3.0 | 3.0 | 0.00 | 0.05 | 0.05 | 48 | 1007.1 |
| 20260510021652 | 63 | 214 | 4.0 | 8.0 | 0.00 | 0.05 | 0.05 | 49 | 1007.1 |
| 20260510021149 | 63 | 211 | 1.0 | 2.0 | 0.00 | 0.05 | 0.05 | 51 | 1006.7 |
| 20260510020644 | 63 | 175 | 0.0 | 1.0 | 0.00 | 0.05 | 0.05 | 51 | 1006.4 |
| 20260510020139 | 64 | 178 | 1.0 | 1.0 | 0.00 | 0.05 | 0.05 | 52 | 1006.4 |
| 20260510015635 | 64 | 184 | 0.0 | 0.0 | 0.00 | 0.05 | 0.05 | 51 | 1006.4 |
| 20260510015133 | 64 | 60 | 4.0 | 4.0 | 0.00 | 0.05 | 0.05 | 50 | 1006.4 |
| 20260510014627 | 63 | 96 | 4.0 | 4.0 | 0.00 | 0.05 | 0.05 | 52 | 1006.1 |
| 20260510014125 | 62 | 119 | 1.0 | 1.0 | 0.00 | 0.05 | 0.05 | 55 | 1006.1 |
| 20260510013625 | 61 | 179 | 0.0 | 0.0 | 0.00 | 0.05 | 0.05 | 58 | 1005.6 |
| 20260510013121 | 61 | 178 | 0.0 | 0.0 | 0.00 | 0.05 | 0.05 | 58 | 1005.6 |
| 20260510012620 | 61 | 178 | 0.0 | 0.0 | 0.00 | 0.05 | 0.05 | 58 | 1005.3 |
| 20260510012117 | 61 | 178 | 0.0 | 0.0 | 0.00 | 0.05 | 0.05 | 55 | 1004.9 |
| 20260510011617 | 61 | 178 | 0.0 | 0.0 | 0.00 | 0.05 | 0.05 | 55 | 1004.9 |
| 20260510011113 | 61 | 178 | 0.0 | 0.0 | 0.00 | 0.05 | 0.05 | 54 | 1004.9 |
| 20260510010609 | 62 | 178 | 0.0 | 0.0 | 0.00 | 0.05 | 0.05 | 53 | 1004.6 |
| 20260510010107 | 63 | 178 | 0.0 | 0.0 | 0.00 | 0.05 | 0.05 | 51 | 1004.9 |
| 20260510005602 | 64 | 178 | 0.0 | 0.0 | 0.00 | 0.05 | 0.05 | 50 | 1004.9 |
| 20260510005100 | 64 | 178 | 0.0 | 0.0 | 0.00 | 0.05 | 0.05 | 48 | 1004.6 |
| 20260510004558 | 65 | 185 | 0.0 | 0.0 | 0.00 | 0.05 | 0.05 | 47 | 1004.6 |
| 20260510004056 | 66 | 189 | 0.0 | 1.0 | 0.00 | 0.05 | 0.05 | 45 | 1004.6 |
| 20260510003552 | 66 | 199 | 0.0 | 0.0 | 0.00 | 0.05 | 0.05 | 44 | 1004.3 |
| 20260510003048 | 67 | 200 | 0.0 | 0.0 | 0.00 | 0.05 | 0.05 | 44 | 1004.3 |
| 20260510002543 | 67 | 212 | 2.0 | 2.0 | 0.00 | 0.05 | 0.05 | 42 | 1004.3 |
| 20260510002040 | 68 | 205 | 1.0 | 1.0 | 0.00 | 0.05 | 0.05 | 42 | 1004.3 |
| 20260510001537 | 68 | 261 | 3.0 | 3.0 | 0.00 | 0.05 | 0.05 | 41 | 1004.3 |
| 20260510001036 | 68 | 193 | 1.0 | 2.0 | 0.00 | 0.05 | 0.05 | 41 | 1004.3 |
| 20260510000530 | 68 | 198 | 1.0 | 1.0 | 0.00 | 0.05 | 0.05 | 40 | 1004.3 |
| 20260510000027 | 69 | 226 | 3.0 | 3.0 | 0.00 | 0.05 | 0.05 | 39 | 1003.9 |
| 20260509235524 | 69 | 209 | 2.0 | 3.0 | 0.00 | 0.05 | 0.05 | 39 | 1003.9 |
| 20260509235021 | 69 | 260 | 4.0 | 4.0 | 0.00 | 0.05 | 0.05 | 39 | 1003.9 |
| 20260509234517 | 69 | 294 | 5.0 | 7.0 | 0.00 | 0.05 | 0.05 | 38 | 1003.9 |
| 20260509234016 | 69 | 265 | 1.0 | 3.0 | 0.00 | 0.05 | 0.05 | 38 | 1003.9 |
| 20260509233513 | 69 | 265 | 3.0 | 4.0 | 0.00 | 0.05 | 0.05 | 39 | 1004.3 |
| 20260509233010 | 69 | 182 | 2.0 | 2.0 | 0.00 | 0.05 | 0.05 | 38 | 1003.9 |
| 20260509232506 | 69 | 225 | 5.0 | 7.0 | 0.00 | 0.05 | 0.05 | 38 | 1003.9 |
| 20260509232003 | 70 | 251 | 1.0 | 2.0 | 0.00 | 0.05 | 0.05 | 38 | 1003.6 |
| 20260509231459 | 70 | 297 | 8.0 | 11.0 | 0.00 | 0.05 | 0.05 | 37 | 1003.9 |
| 20260509230957 | 70 | 305 | 9.0 | 11.0 | 0.00 | 0.05 | 0.05 | 37 | 1003.9 |
| 20260509230453 | 70 | 243 | 3.0 | 3.0 | 0.00 | 0.05 | 0.05 | 38 | 1003.9 |
| 20260509225950 | 70 | 119 | 4.0 | 6.0 | 0.00 | 0.05 | 0.05 | 37 | 1003.6 |
| 20260509225446 | 70 | 290 | 4.0 | 4.0 | 0.00 | 0.05 | 0.05 | 36 | 1003.6 |
| 20260509224942 | 70 | 293 | 5.0 | 8.0 | 0.00 | 0.05 | 0.05 | 36 | 1003.2 |
| 20260509224437 | 71 | 246 | 3.0 | 6.0 | 0.00 | 0.05 | 0.05 | 36 | 1003.6 |
| 20260509223935 | 71 | 203 | 3.0 | 4.0 | 0.00 | 0.05 | 0.05 | 36 | 1003.2 |
| 20260509223431 | 70 | 264 | 3.0 | 3.0 | 0.00 | 0.05 | 0.05 | 37 | 1003.2 |
| 20260509222929 | 70 | 285 | 4.0 | 6.0 | 0.00 | 0.05 | 0.05 | 36 | 1003.2 |
| 20260509222424 | 70 | 300 | 1.0 | 4.0 | 0.00 | 0.05 | 0.05 | 36 | 1003.2 |
| 20260509221920 | 70 | 283 | 5.0 | 7.0 | 0.00 | 0.05 | 0.05 | 36 | 1003.2 |
| 20260509221417 | 71 | 165 | 4.0 | 6.0 | 0.00 | 0.05 | 0.05 | 35 | 1002.9 |
| 20260509220913 | 71 | 288 | 8.0 | 11.0 | 0.00 | 0.05 | 0.05 | 34 | 1002.9 |
| 20260509220409 | 71 | 283 | 7.0 | 9.0 | 0.00 | 0.05 | 0.05 | 35 | 1002.9 |
| 20260509215904 | 72 | 276 | 6.0 | 13.0 | 0.00 | 0.05 | 0.05 | 36 | 1002.9 |
| 20260509215400 | 71 | 222 | 2.0 | 2.0 | 0.00 | 0.05 | 0.05 | 38 | 1002.9 |
| 20260509214858 | 71 | 304 | 7.0 | 9.0 | 0.00 | 0.05 | 0.05 | 38 | 1002.6 |
| 20260509214355 | 71 | 275 | 4.0 | 6.0 | 0.00 | 0.05 | 0.05 | 39 | 1002.6 |
| 20260509213852 | 72 | 285 | 8.0 | 9.0 | 0.00 | 0.05 | 0.05 | 37 | 1002.6 |
| 20260509213347 | 72 | 210 | 3.0 | 6.0 | 0.00 | 0.05 | 0.05 | 39 | 1002.6 |